createdAt,value
2018-12-26T00:00:03.450Z,-0.20
2018-12-26T00:02:31.869Z,-0.30
2018-12-26T00:05:00.292Z,-0.30
2018-12-26T00:07:28.724Z,-0.30
2018-12-26T00:09:57.157Z,-0.30
2018-12-26T00:12:25.607Z,-0.30
2018-12-26T00:14:54.024Z,-0.20
2018-12-26T00:17:22.521Z,-0.20
2018-12-26T00:19:51.063Z,-0.30
2018-12-26T00:22:19.541Z,-0.30
2018-12-26T00:24:47.964Z,-0.40
2018-12-26T00:27:16.403Z,-0.40
2018-12-26T00:29:44.844Z,-0.30
2018-12-26T00:32:13.284Z,-0.40
2018-12-26T00:34:41.693Z,-0.50
2018-12-26T00:37:10.109Z,-0.60
2018-12-26T00:39:38.890Z,-0.70
2018-12-26T00:42:07.337Z,-0.80
2018-12-26T00:44:35.842Z,-0.80
2018-12-26T00:47:04.290Z,-0.90
2018-12-26T00:49:33.028Z,-0.80
2018-12-26T00:52:01.481Z,-0.70
2018-12-26T00:54:29.974Z,-0.70
2018-12-26T00:56:58.520Z,-0.70
2018-12-26T00:59:26.931Z,-0.60
2018-12-26T01:01:55.359Z,-0.60
2018-12-26T01:04:23.818Z,-0.50
2018-12-26T01:06:52.241Z,-0.50
2018-12-26T01:09:21.000Z,-0.40
2018-12-26T01:11:49.408Z,-0.40
2018-12-26T01:14:17.858Z,-0.30
2018-12-26T01:16:46.264Z,-0.20
2018-12-26T01:19:14.684Z,-0.20
2018-12-26T01:21:43.105Z,-0.20
2018-12-26T01:24:11.542Z,-0.30
2018-12-26T01:26:39.969Z,-0.30
2018-12-26T01:29:08.629Z,-0.20
2018-12-26T01:31:37.090Z,-0.20
2018-12-26T01:34:05.492Z,-0.20
2018-12-26T01:36:33.947Z,-0.20
2018-12-26T01:39:02.356Z,-0.10
2018-12-26T01:41:30.809Z,-0.10
2018-12-26T01:43:59.204Z,-0.10
2018-12-26T01:46:27.681Z,-0.10
2018-12-26T01:48:56.076Z,-0.10
2018-12-26T01:51:24.862Z,0.00
2018-12-26T01:53:53.265Z,0.00
2018-12-26T01:56:27.873Z,0.00
2018-12-26T01:58:51.865Z,0.10
2018-12-26T02:01:20.338Z,0.10
2018-12-26T02:03:48.790Z,0.00
2018-12-26T02:06:17.181Z,0.00
2018-12-26T02:08:45.622Z,0.00
2018-12-26T02:11:14.033Z,0.10
2018-12-26T02:13:42.459Z,0.00
2018-12-26T02:16:10.945Z,-0.10
2018-12-26T02:18:39.380Z,-0.20
2018-12-26T02:21:07.810Z,-0.20
2018-12-26T02:23:36.234Z,-0.20
2018-12-26T02:26:04.669Z,-0.30
2018-12-26T02:28:33.093Z,-0.40
2018-12-26T02:31:01.501Z,-0.50
2018-12-26T02:33:29.960Z,-0.50
2018-12-26T02:35:58.371Z,-0.50
2018-12-26T02:38:26.815Z,-0.60
2018-12-26T02:40:55.218Z,-0.80
2018-12-26T02:43:23.674Z,-0.90
2018-12-26T02:45:52.085Z,-1.00
2018-12-26T02:48:20.512Z,-1.00
2018-12-26T02:50:49.197Z,-0.90
2018-12-26T02:53:17.641Z,-0.80
2018-12-26T02:55:46.056Z,-0.80
2018-12-26T02:58:14.488Z,-0.80
2018-12-26T03:00:42.918Z,-0.70
2018-12-26T03:03:11.681Z,-0.80
2018-12-26T03:05:40.098Z,-0.70
2018-12-26T03:08:08.522Z,-0.60
2018-12-26T03:10:36.962Z,-0.60
2018-12-26T03:13:05.377Z,-0.60
2018-12-26T03:15:33.796Z,-0.60
2018-12-26T03:18:02.221Z,-0.60
2018-12-26T03:20:30.639Z,-0.70
2018-12-26T03:22:59.052Z,-0.70
2018-12-26T03:25:27.471Z,-0.60
2018-12-26T03:27:55.924Z,-0.60
2018-12-26T03:30:24.423Z,-0.50
2018-12-26T03:32:52.867Z,-0.50
2018-12-26T03:35:21.436Z,-0.50
2018-12-26T03:37:49.836Z,-0.60
2018-12-26T03:40:18.259Z,-0.50
2018-12-26T03:42:46.673Z,-0.60
2018-12-26T03:45:15.494Z,-0.50
2018-12-26T03:47:44.550Z,-0.50
2018-12-26T03:50:13.255Z,-0.40
2018-12-26T03:52:41.937Z,-0.40
2018-12-26T03:55:10.398Z,-0.50
2018-12-26T03:57:38.870Z,-0.60
2018-12-26T04:00:09.336Z,-0.70
2018-12-26T04:02:37.825Z,-0.60
2018-12-26T04:05:06.251Z,-0.60
2018-12-26T04:07:34.897Z,-0.50
2018-12-26T04:10:03.416Z,-0.60
2018-12-26T04:12:32.051Z,-0.60
2018-12-26T04:15:00.543Z,-0.60
2018-12-26T04:17:29.029Z,-0.70
2018-12-26T04:19:57.918Z,-0.70
2018-12-26T04:22:27.093Z,-0.70
2018-12-26T04:24:55.784Z,-0.60
2018-12-26T04:27:24.225Z,-0.60
2018-12-26T04:29:52.655Z,-0.60
2018-12-26T04:32:21.063Z,-0.60
2018-12-26T04:34:49.490Z,-0.50
2018-12-26T04:37:17.968Z,-0.50
2018-12-26T04:39:46.414Z,-0.40
2018-12-26T04:42:14.864Z,-0.40
2018-12-26T04:44:43.318Z,-0.40
2018-12-26T04:47:11.820Z,-0.60
2018-12-26T04:49:40.258Z,-0.70
2018-12-26T04:52:08.719Z,-0.60
2018-12-26T04:54:37.256Z,-0.60
2018-12-26T04:57:05.701Z,-0.50
2018-12-26T04:59:34.110Z,-0.40
2018-12-26T05:02:02.529Z,-0.40
2018-12-26T05:04:30.965Z,-0.40
2018-12-26T05:06:59.400Z,-0.40
2018-12-26T05:09:27.795Z,-0.40
2018-12-26T05:11:56.231Z,-0.40
2018-12-26T05:14:24.652Z,-0.50
2018-12-26T05:16:53.068Z,-0.50
2018-12-26T05:19:21.468Z,-0.50
2018-12-26T05:21:49.897Z,-0.50
2018-12-26T05:24:18.315Z,-0.50
2018-12-26T05:26:46.767Z,-0.50
2018-12-26T05:29:15.193Z,-0.50
2018-12-26T05:31:43.626Z,-0.40
2018-12-26T05:34:12.041Z,-0.40
2018-12-26T05:36:40.465Z,-0.30
2018-12-26T05:39:08.868Z,-0.30
2018-12-26T05:41:37.621Z,-0.30
2018-12-26T05:44:06.148Z,-0.30
2018-12-26T05:46:34.597Z,-0.30
2018-12-26T05:49:22.617Z,-0.30
2018-12-26T05:51:51.074Z,-0.30
2018-12-26T05:54:19.549Z,-0.20
2018-12-26T05:56:47.997Z,-0.10
2018-12-26T05:59:16.450Z,0.00
2018-12-26T06:01:44.962Z,0.00
2018-12-26T06:04:13.653Z,-0.10
2018-12-26T06:06:42.765Z,-0.30
2018-12-26T06:09:11.178Z,-0.40
2018-12-26T06:11:40.587Z,-0.30
2018-12-26T06:14:09.041Z,-0.30
2018-12-26T06:16:37.511Z,-0.20
2018-12-26T06:19:06.034Z,-0.30
2018-12-26T06:21:34.498Z,-0.30
2018-12-26T06:24:02.912Z,-0.20
2018-12-26T06:26:31.344Z,-0.10
2018-12-26T06:28:59.777Z,0.00
2018-12-26T06:31:28.215Z,0.10
2018-12-26T06:33:56.602Z,0.10
2018-12-26T06:36:24.997Z,0.20
2018-12-26T06:38:53.423Z,0.20
2018-12-26T06:41:21.840Z,0.10
2018-12-26T06:43:50.549Z,0.10
2018-12-26T06:46:18.949Z,0.20
2018-12-26T06:48:47.390Z,0.30
2018-12-26T06:51:15.868Z,0.10
2018-12-26T06:53:44.366Z,0.10
2018-12-26T06:56:13.137Z,0.20
2018-12-26T06:58:41.627Z,0.20
2018-12-26T07:01:10.032Z,0.10
2018-12-26T07:03:38.899Z,0.10
2018-12-26T07:06:07.379Z,0.20
2018-12-26T07:08:35.808Z,0.20
2018-12-26T07:11:04.221Z,0.30
2018-12-26T07:13:32.674Z,0.30
2018-12-26T07:16:01.086Z,0.30
2018-12-26T07:18:29.538Z,0.30
2018-12-26T07:20:57.940Z,0.30
2018-12-26T07:23:26.388Z,0.30
2018-12-26T07:25:54.803Z,0.40
2018-12-26T07:28:23.595Z,0.30
2018-12-26T07:30:52.052Z,0.30
2018-12-26T07:33:20.802Z,0.30
2018-12-26T07:35:49.313Z,0.30
2018-12-26T07:38:17.816Z,0.30
2018-12-26T07:40:46.259Z,0.40
2018-12-26T07:43:14.685Z,0.30
2018-12-26T07:45:43.142Z,0.20
2018-12-26T07:48:12.069Z,0.20
2018-12-26T07:50:40.507Z,0.10
2018-12-26T07:53:09.019Z,0.20
2018-12-26T07:55:37.469Z,0.20
2018-12-26T07:58:05.906Z,0.30
2018-12-26T08:00:34.422Z,0.30
2018-12-26T08:03:02.866Z,0.30
2018-12-26T08:05:31.302Z,0.30
2018-12-26T08:08:00.030Z,0.40
2018-12-26T08:10:30.046Z,0.40
2018-12-26T08:12:58.532Z,0.50
2018-12-26T08:15:26.954Z,0.60
2018-12-26T08:17:55.687Z,0.70
2018-12-26T08:20:24.128Z,0.80
2018-12-26T08:22:52.567Z,0.80
2018-12-26T08:25:20.978Z,0.90
2018-12-26T08:27:49.422Z,0.90
2018-12-26T08:30:17.836Z,0.80
2018-12-26T08:32:46.278Z,0.80
2018-12-26T08:35:14.906Z,0.80
2018-12-26T08:37:44.722Z,0.80
2018-12-26T08:40:13.166Z,0.80
2018-12-26T08:42:41.613Z,0.90
2018-12-26T08:45:10.113Z,0.90
2018-12-26T08:47:38.535Z,0.90
2018-12-26T08:50:08.625Z,0.90
2018-12-26T08:52:37.067Z,0.90
2018-12-26T08:55:05.525Z,1.00
2018-12-26T08:57:33.944Z,1.00
2018-12-26T09:00:02.458Z,0.90
2018-12-26T09:02:30.972Z,1.10
2018-12-26T09:04:59.462Z,1.10
2018-12-26T09:07:27.981Z,1.20
2018-12-26T09:09:56.553Z,1.30
2018-12-26T09:12:25.319Z,1.30
2018-12-26T09:14:53.730Z,1.30
2018-12-26T09:17:22.173Z,1.30
2018-12-26T09:19:50.609Z,1.30
2018-12-26T09:22:19.052Z,1.20
2018-12-26T09:24:47.485Z,1.30
2018-12-26T09:27:16.028Z,1.40
2018-12-26T09:29:44.448Z,1.50
2018-12-26T09:32:13.162Z,1.40
2018-12-26T09:34:41.633Z,1.40
2018-12-26T09:37:10.045Z,1.30
2018-12-26T09:39:38.502Z,1.40
2018-12-26T09:42:06.968Z,1.40
2018-12-26T09:44:35.433Z,1.50
2018-12-26T09:47:03.919Z,1.60
2018-12-26T09:49:32.333Z,1.60
2018-12-26T09:52:00.840Z,1.70
2018-12-26T09:54:29.289Z,1.70
2018-12-26T09:56:57.735Z,1.70
2018-12-26T09:59:26.274Z,1.70
2018-12-26T10:01:54.717Z,1.70
2018-12-26T10:04:23.146Z,1.70
2018-12-26T10:06:51.570Z,1.80
2018-12-26T10:09:20.154Z,1.80
2018-12-26T10:11:48.586Z,1.90
2018-12-26T10:14:16.990Z,2.00
2018-12-26T10:16:45.853Z,2.00
2018-12-26T10:19:14.326Z,2.00
2018-12-26T10:21:42.799Z,1.90
2018-12-26T10:24:11.234Z,1.90
2018-12-26T10:26:39.684Z,2.00
2018-12-26T10:29:08.172Z,2.00
2018-12-26T10:31:36.660Z,1.90
2018-12-26T10:34:05.086Z,2.00
2018-12-26T10:36:33.596Z,2.00
2018-12-26T10:39:02.666Z,2.00
2018-12-26T10:41:32.049Z,2.00
2018-12-26T10:44:00.448Z,2.00
2018-12-26T10:46:29.165Z,2.00
2018-12-26T10:48:57.582Z,1.90
2018-12-26T10:51:26.004Z,1.90
2018-12-26T10:53:54.415Z,1.90
2018-12-26T10:56:22.865Z,1.90
2018-12-26T10:58:51.349Z,1.90
2018-12-26T11:01:19.952Z,2.00
2018-12-26T11:03:48.727Z,2.00
2018-12-26T11:06:17.690Z,2.00
2018-12-26T11:08:46.183Z,2.10
2018-12-26T11:11:16.626Z,2.00
2018-12-26T11:13:45.136Z,2.00
2018-12-26T11:16:14.619Z,2.00
2018-12-26T11:18:43.487Z,2.00
2018-12-26T11:21:13.022Z,2.00
2018-12-26T11:23:44.516Z,2.10
2018-12-26T11:26:13.131Z,2.00
2018-12-26T11:28:41.993Z,1.80
2018-12-26T11:31:10.537Z,1.90
2018-12-26T11:33:39.211Z,1.90
2018-12-26T11:36:07.740Z,1.70
2018-12-26T11:38:37.298Z,1.80
2018-12-26T11:41:05.826Z,1.80
2018-12-26T11:43:35.119Z,1.90
2018-12-26T11:46:03.616Z,1.90
2018-12-26T11:48:35.283Z,1.80
2018-12-26T11:51:04.423Z,1.70
2018-12-26T11:53:33.044Z,1.80
2018-12-26T11:56:01.456Z,1.90
2018-12-26T11:58:30.168Z,2.00
2018-12-26T12:00:58.590Z,2.00
2018-12-26T12:03:27.002Z,2.10
2018-12-26T12:05:55.435Z,2.20
2018-12-26T12:08:23.916Z,2.30
2018-12-26T12:10:52.385Z,2.40
2018-12-26T12:13:20.820Z,2.30
2018-12-26T12:15:49.213Z,2.20
2018-12-26T12:18:23.681Z,2.30
2018-12-26T12:20:52.095Z,2.40
2018-12-26T12:23:20.768Z,2.40
2018-12-26T12:25:49.173Z,2.40
2018-12-26T12:28:17.584Z,2.30
2018-12-26T12:30:46.010Z,2.30
2018-12-26T12:33:14.424Z,2.30
2018-12-26T12:35:42.925Z,2.30
2018-12-26T12:38:11.394Z,2.40
2018-12-26T12:40:39.900Z,2.40
2018-12-26T12:43:08.423Z,2.50
2018-12-26T12:45:36.916Z,2.20
2018-12-26T12:48:05.359Z,2.20
2018-12-26T12:50:33.858Z,2.30
2018-12-26T12:53:02.252Z,2.20
2018-12-26T12:55:30.677Z,2.20
2018-12-26T12:57:59.132Z,2.20
2018-12-26T13:00:27.609Z,2.30
2018-12-26T13:03:00.354Z,2.30
2018-12-26T13:05:26.198Z,2.30
2018-12-26T13:07:54.630Z,2.40
2018-12-26T13:10:23.027Z,2.40
2018-12-26T13:12:51.485Z,2.50
2018-12-26T13:15:19.977Z,2.50
2018-12-26T13:17:48.402Z,2.50
2018-12-26T13:20:16.808Z,2.50
2018-12-26T13:22:45.273Z,2.50
2018-12-26T13:25:13.729Z,2.40
2018-12-26T13:27:42.125Z,2.40
2018-12-26T13:30:10.942Z,2.40
2018-12-26T13:32:39.737Z,2.40
2018-12-26T13:35:08.320Z,2.40
2018-12-26T13:37:43.209Z,2.30
2018-12-26T13:40:11.618Z,2.30
2018-12-26T13:42:40.145Z,2.20
2018-12-26T13:45:08.653Z,2.00
2018-12-26T13:47:37.058Z,1.90
2018-12-26T13:50:06.712Z,1.90
2018-12-26T13:52:35.110Z,1.90
2018-12-26T13:55:04.698Z,1.90
2018-12-26T13:57:33.100Z,1.90
2018-12-26T14:00:02.568Z,1.90
2018-12-26T14:02:31.284Z,1.90
2018-12-26T14:04:59.704Z,1.80
2018-12-26T14:07:28.121Z,1.80
2018-12-26T14:09:56.528Z,1.80
2018-12-26T14:12:24.944Z,1.80
2018-12-26T14:14:53.456Z,1.70
2018-12-26T14:17:22.235Z,1.70
2018-12-26T14:19:50.654Z,1.60
2018-12-26T14:22:19.053Z,1.50
2018-12-26T14:24:47.477Z,1.50
2018-12-26T14:27:15.908Z,1.50
2018-12-26T14:29:44.328Z,1.60
2018-12-26T14:32:12.833Z,1.70
2018-12-26T14:34:43.191Z,1.70
2018-12-26T14:37:11.388Z,1.60
2018-12-26T14:39:39.784Z,1.60
2018-12-26T14:42:08.198Z,1.60
2018-12-26T14:44:36.620Z,1.50
2018-12-26T14:47:05.068Z,1.40
2018-12-26T14:49:33.520Z,1.50
2018-12-26T14:52:01.962Z,1.30
2018-12-26T14:54:30.358Z,1.10
2018-12-26T14:56:58.774Z,1.10
2018-12-26T14:59:27.169Z,1.10
2018-12-26T15:01:55.573Z,1.10
2018-12-26T15:04:24.010Z,1.00
2018-12-26T15:06:52.445Z,1.00
2018-12-26T15:09:21.204Z,1.00
2018-12-26T15:11:49.651Z,1.00
2018-12-26T15:14:18.053Z,0.90
2018-12-26T15:16:46.472Z,0.80
2018-12-26T15:19:16.342Z,0.80
2018-12-26T15:21:44.784Z,0.90
2018-12-26T15:24:13.184Z,0.80
2018-12-26T15:26:41.629Z,0.80
2018-12-26T15:29:10.027Z,0.60
2018-12-26T15:31:38.429Z,0.60
2018-12-26T15:34:06.827Z,0.60
2018-12-26T15:36:35.264Z,0.60
2018-12-26T15:39:05.295Z,0.60
2018-12-26T15:41:35.355Z,0.50
2018-12-26T15:44:04.001Z,0.50
2018-12-26T15:46:32.397Z,0.50
2018-12-26T15:49:00.858Z,0.50
2018-12-26T15:51:30.050Z,0.50
2018-12-26T15:53:58.765Z,0.60
2018-12-26T15:56:27.204Z,0.50
2018-12-26T15:58:55.621Z,0.50
2018-12-26T16:01:24.012Z,0.40
2018-12-26T16:03:52.465Z,0.40
2018-12-26T16:06:20.851Z,0.30
2018-12-26T16:08:49.285Z,0.20
2018-12-26T16:11:17.679Z,0.20
2018-12-26T16:13:46.093Z,0.10
2018-12-26T16:16:14.508Z,0.10
2018-12-26T16:18:42.916Z,0.20
2018-12-26T16:21:11.369Z,0.10
2018-12-26T16:23:39.775Z,0.20
2018-12-26T16:26:08.512Z,0.20
2018-12-26T16:28:36.946Z,0.30
2018-12-26T16:31:05.342Z,0.30
2018-12-26T16:33:34.297Z,0.40
2018-12-26T16:36:02.725Z,0.40
2018-12-26T16:38:31.435Z,0.40
2018-12-26T16:40:59.867Z,0.30
2018-12-26T16:43:28.350Z,0.20
2018-12-26T16:45:56.752Z,0.10
2018-12-26T16:48:25.156Z,0.10
2018-12-26T16:50:53.555Z,0.10
2018-12-26T16:53:21.994Z,0.20
2018-12-26T16:55:50.403Z,0.20
2018-12-26T16:58:19.003Z,0.10
2018-12-26T17:00:54.822Z,0.10
2018-12-26T17:03:17.534Z,0.10
2018-12-26T17:05:45.951Z,0.10
2018-12-26T17:08:14.364Z,0.10
2018-12-26T17:10:43.049Z,0.20
2018-12-26T17:13:11.493Z,0.20
2018-12-26T17:15:39.895Z,0.20
2018-12-26T17:18:08.316Z,0.30
2018-12-26T17:20:36.746Z,0.30
2018-12-26T17:23:05.152Z,0.40
2018-12-26T17:25:33.585Z,0.40
2018-12-26T17:28:02.321Z,0.40
2018-12-26T17:30:30.808Z,0.50
2018-12-26T17:33:00.807Z,0.40
2018-12-26T17:35:29.520Z,0.40
2018-12-26T17:37:57.948Z,0.30
2018-12-26T17:40:26.341Z,0.30
2018-12-26T17:42:54.777Z,0.30
2018-12-26T17:45:23.441Z,0.20
2018-12-26T17:47:51.921Z,0.20
2018-12-26T17:50:40.171Z,0.30
2018-12-26T17:53:11.978Z,0.30
2018-12-26T17:56:00.248Z,0.30
2018-12-26T17:58:34.859Z,0.30
2018-12-26T18:01:30.280Z,0.20
2018-12-26T18:03:58.733Z,0.20
2018-12-26T18:06:27.216Z,0.20
2018-12-26T18:08:55.633Z,0.20
2018-12-26T18:11:24.075Z,0.10
2018-12-26T18:13:52.486Z,0.10
2018-12-26T18:16:20.887Z,0.20
2018-12-26T18:18:49.322Z,0.30
2018-12-26T18:21:17.732Z,0.20
2018-12-26T18:23:46.189Z,0.20
2018-12-26T18:26:14.623Z,0.10
2018-12-26T18:28:43.045Z,0.00
2018-12-26T18:31:11.554Z,-0.10
2018-12-26T18:33:39.984Z,0.00
2018-12-26T18:36:08.390Z,0.00
2018-12-26T18:38:36.858Z,-0.10
2018-12-26T18:41:05.264Z,-0.20
2018-12-26T18:43:33.721Z,-0.30
2018-12-26T18:46:02.306Z,-0.40
2018-12-26T18:48:30.805Z,-0.50
2018-12-26T18:50:59.222Z,-0.50
2018-12-26T18:53:27.713Z,-0.50
2018-12-26T18:55:56.409Z,-0.60
2018-12-26T18:58:24.867Z,-0.60
2018-12-26T19:00:53.336Z,-0.70
2018-12-26T19:03:21.857Z,-0.50
2018-12-26T19:05:50.261Z,-0.50
2018-12-26T19:08:18.743Z,-0.50
2018-12-26T19:10:47.222Z,-0.50
2018-12-26T19:13:15.668Z,-0.40
2018-12-26T19:15:44.088Z,-0.40
2018-12-26T19:18:12.497Z,-0.50
2018-12-26T19:20:40.941Z,-0.60
2018-12-26T19:23:09.353Z,-0.60
2018-12-26T19:25:37.825Z,-0.60
2018-12-26T19:28:06.225Z,-0.60
2018-12-26T19:30:34.974Z,-0.60
2018-12-26T19:33:03.372Z,-0.80
2018-12-26T19:35:31.831Z,-0.80
2018-12-26T19:38:00.241Z,-0.90
2018-12-26T19:40:28.711Z,-0.90
2018-12-26T19:42:57.206Z,-0.90
2018-12-26T19:45:25.662Z,-0.80
2018-12-26T19:47:54.330Z,-0.80
2018-12-26T19:50:22.788Z,-0.70
2018-12-26T19:52:51.211Z,-0.80
2018-12-26T19:55:19.650Z,-0.80
2018-12-26T19:57:48.049Z,-0.90
2018-12-26T20:00:16.508Z,-1.00
2018-12-26T20:02:45.009Z,-0.90
2018-12-26T20:05:13.454Z,-0.90
2018-12-26T20:07:41.878Z,-1.00
2018-12-26T20:10:11.085Z,-0.90
2018-12-26T20:12:39.510Z,-0.90
2018-12-26T20:15:08.033Z,-0.70
2018-12-26T20:17:36.438Z,-0.70
2018-12-26T20:20:07.028Z,-0.70
2018-12-26T20:22:35.440Z,-0.70
2018-12-26T20:25:03.990Z,-0.80
2018-12-26T20:27:32.425Z,-0.80
2018-12-26T20:30:00.927Z,-0.80
2018-12-26T20:32:29.453Z,-0.70
2018-12-26T20:34:57.954Z,-0.60
2018-12-26T20:37:26.418Z,-0.50
2018-12-26T20:39:55.130Z,-0.40
2018-12-26T20:42:23.562Z,-0.40
2018-12-26T20:44:52.022Z,-0.40
2018-12-26T20:47:20.431Z,-0.30
2018-12-26T20:49:48.892Z,-0.30
2018-12-26T20:52:17.297Z,-0.40
2018-12-26T20:54:45.734Z,-0.50
2018-12-26T20:57:14.223Z,-0.50
2018-12-26T20:59:42.882Z,-0.60
2018-12-26T21:02:11.418Z,-0.60
2018-12-26T21:04:39.815Z,-0.70
2018-12-26T21:07:08.306Z,-0.80
2018-12-26T21:09:36.705Z,-0.70
2018-12-26T21:12:05.121Z,-0.70
2018-12-26T21:14:33.564Z,-0.60
2018-12-26T21:17:01.963Z,-0.70
2018-12-26T21:19:30.750Z,-0.90
2018-12-26T21:21:59.149Z,-1.00
2018-12-26T21:24:27.568Z,-1.20
2018-12-26T21:26:56.083Z,-1.30
2018-12-26T21:29:24.492Z,-1.20
2018-12-26T21:31:52.993Z,-1.10
2018-12-26T21:34:21.416Z,-1.10
2018-12-26T21:36:49.801Z,-1.10
2018-12-26T21:39:18.232Z,-1.00
2018-12-26T21:41:46.644Z,-1.10
2018-12-26T21:44:15.056Z,-1.00
2018-12-26T21:46:43.762Z,-1.00
2018-12-26T21:49:12.195Z,-1.00
2018-12-26T21:51:40.596Z,-1.00
2018-12-26T21:54:09.022Z,-1.00
2018-12-26T21:56:37.466Z,-0.90
2018-12-26T21:59:05.864Z,-0.90
2018-12-26T22:01:34.639Z,-0.90
2018-12-26T22:04:03.346Z,-1.00
2018-12-26T22:06:31.744Z,-0.90
2018-12-26T22:09:00.189Z,-0.80
2018-12-26T22:11:28.588Z,-0.80
2018-12-26T22:13:56.996Z,-1.00
2018-12-26T22:16:25.738Z,-1.10
2018-12-26T22:18:54.153Z,-1.10
2018-12-26T22:21:22.588Z,-1.10
2018-12-26T22:23:50.989Z,-1.10
2018-12-26T22:26:19.410Z,-1.00
2018-12-26T22:28:47.858Z,-1.10
2018-12-26T22:31:16.301Z,-1.10
2018-12-26T22:33:44.706Z,-1.10
2018-12-26T22:36:13.150Z,-1.00
2018-12-26T22:38:41.589Z,-1.10
2018-12-26T22:41:09.990Z,-1.00
2018-12-26T22:43:38.729Z,-1.20
2018-12-26T22:46:07.152Z,-1.30
2018-12-26T22:48:35.556Z,-1.40
2018-12-26T22:51:04.031Z,-1.40
2018-12-26T22:53:32.464Z,-1.50
2018-12-26T22:56:01.253Z,-1.40
2018-12-26T22:58:29.653Z,-1.30
2018-12-26T23:00:58.113Z,-1.30
2018-12-26T23:03:26.541Z,-1.20
2018-12-26T23:05:54.960Z,-1.10
2018-12-26T23:08:23.408Z,-1.10
2018-12-26T23:10:51.841Z,-1.10
2018-12-26T23:13:20.279Z,-1.20
2018-12-26T23:15:48.719Z,-1.20
2018-12-26T23:18:17.118Z,-1.40
2018-12-26T23:20:45.550Z,-1.40
2018-12-26T23:23:13.998Z,-1.40
2018-12-26T23:25:42.750Z,-1.50
2018-12-26T23:28:11.167Z,-1.40
2018-12-26T23:30:39.573Z,-1.30
2018-12-26T23:33:07.976Z,-1.30
2018-12-26T23:35:36.406Z,-1.20
2018-12-26T23:38:04.809Z,-1.20
2018-12-26T23:40:33.225Z,-1.20
2018-12-26T23:43:01.625Z,-1.30
2018-12-26T23:45:30.044Z,-1.40
2018-12-26T23:47:58.775Z,-1.40
2018-12-26T23:50:27.177Z,-1.40
2018-12-26T23:52:55.611Z,-1.50
2018-12-26T23:55:43.406Z,-1.50
2018-12-26T23:58:11.894Z,-1.50
